sensor_id;sensor_type;location;lat;lon;timestamp;pressure;altitude;pressure_sealevel;temperature;humidity
2268;BME280;11052;43.338;25.502;2022-08-30T00:02:18;100354.38;;;23.27;100.00
2268;BME280;11052;43.338;25.502;2022-08-30T00:04:46;100357.63;;;23.30;100.00
2268;BME280;11052;43.338;25.502;2022-08-30T00:07:15;100354.63;;;23.24;100.00
2268;BME280;11052;43.338;25.502;2022-08-30T00:09:43;100360.16;;;23.20;100.00
2268;BME280;11052;43.338;25.502;2022-08-30T00:12:10;100360.28;;;23.19;100.00
2268;BME280;11052;43.338;25.502;2022-08-30T00:14:38;100366.66;;;23.16;100.00
2268;BME280;11052;43.338;25.502;2022-08-30T00:17:05;100367.16;;;23.10;100.00
2268;BME280;11052;43.338;25.502;2022-08-30T00:19:33;100373.56;;;23.08;100.00
2268;BME280;11052;43.338;25.502;2022-08-30T00:22:01;100363.09;;;23.06;100.00
2268;BME280;11052;43.338;25.502;2022-08-30T00:24:30;100362.38;;;23.04;100.00
2268;BME280;11052;43.338;25.502;2022-08-30T00:26:57;100371.16;;;23.05;100.00
2268;BME280;11052;43.338;25.502;2022-08-30T00:29:25;100375.59;;;23.04;100.00
2268;BME280;11052;43.338;25.502;2022-08-30T00:31:53;100375.22;;;23.09;100.00
2268;BME280;11052;43.338;25.502;2022-08-30T00:34:21;100380.16;;;23.13;100.00
2268;BME280;11052;43.338;25.502;2022-08-30T00:36:49;100368.47;;;23.16;100.00
2268;BME280;11052;43.338;25.502;2022-08-30T00:39:16;100371.72;;;23.19;100.00
2268;BME280;11052;43.338;25.502;2022-08-30T00:41:45;100372.44;;;23.21;100.00
2268;BME280;11052;43.338;25.502;2022-08-30T00:44:13;100369.53;;;23.25;100.00
2268;BME280;11052;43.338;25.502;2022-08-30T00:46:41;100373.97;;;23.24;100.00
2268;BME280;11052;43.338;25.502;2022-08-30T00:49:10;100374.09;;;23.23;100.00
2268;BME280;11052;43.338;25.502;2022-08-30T00:51:40;100373.97;;;23.24;100.00
2268;BME280;11052;43.338;25.502;2022-08-30T00:54:08;100375.31;;;23.18;100.00
2268;BME280;11052;43.338;25.502;2022-08-30T00:56:36;100380.63;;;23.18;100.00
2268;BME280;11052;43.338;25.502;2022-08-30T00:59:06;100376.53;;;23.14;100.00
2268;BME280;11052;43.338;25.502;2022-08-30T01:01:35;100375.44;;;23.17;100.00
2268;BME280;11052;43.338;25.502;2022-08-30T01:04:04;100373.91;;;23.14;100.00
2268;BME280;11052;43.338;25.502;2022-08-30T01:06:33;100376.53;;;23.14;100.00
2268;BME280;11052;43.338;25.502;2022-08-30T01:09:02;100380.50;;;23.20;100.00
2268;BME280;11052;43.338;25.502;2022-08-30T01:11:32;100380.13;;;23.25;100.00
2268;BME280;11052;43.338;25.502;2022-08-30T01:14:01;100377.84;;;23.20;100.00
2268;BME280;11052;43.338;25.502;2022-08-30T01:16:31;100377.47;;;23.25;100.00
2268;BME280;11052;43.338;25.502;2022-08-30T01:19:01;100391.03;;;23.31;100.00
2268;BME280;11052;43.338;25.502;2022-08-30T01:21:33;100389.00;;;23.24;100.00
2268;BME280;11052;43.338;25.502;2022-08-30T01:24:06;100394.78;;;23.29;100.00
2268;BME280;11052;43.338;25.502;2022-08-30T01:26:35;100379.28;;;23.24;100.00
2268;BME280;11052;43.338;25.502;2022-08-30T01:29:05;100389.84;;;23.24;100.00
2268;BME280;11052;43.338;25.502;2022-08-30T01:31:34;100387.97;;;23.15;100.00
2268;BME280;11052;43.338;25.502;2022-08-30T01:34:03;100388.31;;;23.21;100.00
2268;BME280;11052;43.338;25.502;2022-08-30T01:36:33;100396.56;;;23.28;100.00
2268;BME280;11052;43.338;25.502;2022-08-30T01:39:04;100395.66;;;23.18;100.00
2268;BME280;11052;43.338;25.502;2022-08-30T01:41:33;100392.88;;;23.19;100.00
2268;BME280;11052;43.338;25.502;2022-08-30T01:44:04;100390.69;;;23.25;100.00
2268;BME280;11052;43.338;25.502;2022-08-30T01:46:35;100391.06;;;23.20;100.00
2268;BME280;11052;43.338;25.502;2022-08-30T01:49:06;100383.38;;;23.17;100.00
2268;BME280;11052;43.338;25.502;2022-08-30T01:51:34;100392.41;;;23.14;100.00
2268;BME280;11052;43.338;25.502;2022-08-30T01:54:04;100396.25;;;23.10;100.00
2268;BME280;11052;43.338;25.502;2022-08-30T01:56:32;100396.63;;;23.06;100.00
2268;BME280;11052;43.338;25.502;2022-08-30T01:59:00;100398.44;;;23.05;100.00
2268;BME280;11052;43.338;25.502;2022-08-30T02:01:29;100397.00;;;23.01;100.00
2268;BME280;11052;43.338;25.502;2022-08-30T02:03:57;100395.06;;;23.03;100.00
2268;BME280;11052;43.338;25.502;2022-08-30T02:06:25;100395.91;;;23.04;100.00
2268;BME280;11052;43.338;25.502;2022-08-30T02:08:52;100392.81;;;22.99;100.00
2268;BME280;11052;43.338;25.502;2022-08-30T02:11:22;100398.44;;;22.94;100.00
2268;BME280;11052;43.338;25.502;2022-08-30T02:13:50;100391.38;;;22.95;100.00
2268;BME280;11052;43.338;25.502;2022-08-30T02:16:19;100401.47;;;22.89;100.00
2268;BME280;11052;43.338;25.502;2022-08-30T02:18:48;100407.47;;;22.92;100.00
2268;BME280;11052;43.338;25.502;2022-08-30T02:21:16;100412.28;;;22.86;100.00
2268;BME280;11052;43.338;25.502;2022-08-30T02:23:44;100413.25;;;22.85;100.00
2268;BME280;11052;43.338;25.502;2022-08-30T02:26:13;100422.03;;;22.86;100.00
2268;BME280;11052;43.338;25.502;2022-08-30T02:28:43;100421.53;;;22.81;100.00
2268;BME280;11052;43.338;25.502;2022-08-30T02:31:11;100420.31;;;22.74;100.00
2268;BME280;11052;43.338;25.502;2022-08-30T02:33:39;100418.19;;;22.79;100.00
2268;BME280;11052;43.338;25.502;2022-08-30T02:36:07;100418.25;;;22.77;100.00
2268;BME280;11052;43.338;25.502;2022-08-30T02:38:35;100418.38;;;22.76;100.00
2268;BME280;11052;43.338;25.502;2022-08-30T02:41:03;100417.66;;;22.74;100.00
2268;BME280;11052;43.338;25.502;2022-08-30T02:43:32;100421.16;;;22.74;100.00
2268;BME280;11052;43.338;25.502;2022-08-30T02:46:02;100426.69;;;22.71;100.00
2268;BME280;11052;43.338;25.502;2022-08-30T02:48:29;100426.78;;;22.70;100.00
2268;BME280;11052;43.338;25.502;2022-08-30T02:51:04;100426.78;;;22.70;100.00
2268;BME280;11052;43.338;25.502;2022-08-30T02:53:32;100427.88;;;22.67;100.00
2268;BME280;11052;43.338;25.502;2022-08-30T02:56:01;100429.69;;;22.67;100.00
2268;BME280;11052;43.338;25.502;2022-08-30T02:58:29;100424.88;;;22.61;100.00
2268;BME280;11052;43.338;25.502;2022-08-30T03:00:56;100425.22;;;22.56;100.00
2268;BME280;11052;43.338;25.502;2022-08-30T03:03:25;100439.91;;;22.49;100.00
2268;BME280;11052;43.338;25.502;2022-08-30T03:05:53;100440.38;;;22.43;100.00
2268;BME280;11052;43.338;25.502;2022-08-30T03:08:20;100441.69;;;22.37;100.00
2268;BME280;11052;43.338;25.502;2022-08-30T03:10:48;100443.72;;;22.34;100.00
2268;BME280;11052;43.338;25.502;2022-08-30T03:13:16;100451.78;;;22.32;100.00
2268;BME280;11052;43.338;25.502;2022-08-30T03:15:43;100447.91;;;22.25;100.00
2268;BME280;11052;43.338;25.502;2022-08-30T03:18:13;100447.06;;;22.24;100.00
2268;BME280;11052;43.338;25.502;2022-08-30T03:20:43;100440.94;;;22.24;100.00
2268;BME280;11052;43.338;25.502;2022-08-30T03:23:10;100446.34;;;22.22;100.00
2268;BME280;11052;43.338;25.502;2022-08-30T03:25:38;100454.84;;;22.15;100.00
2268;BME280;11052;43.338;25.502;2022-08-30T03:28:06;100450.25;;;22.06;100.00
2268;BME280;11052;43.338;25.502;2022-08-30T03:30:33;100446.25;;;22.00;100.00
2268;BME280;11052;43.338;25.502;2022-08-30T03:33:02;100451.38;;;21.90;100.00
2268;BME280;11052;43.338;25.502;2022-08-30T03:35:30;100446.06;;;21.79;100.00
2268;BME280;11052;43.338;25.502;2022-08-30T03:37:59;100465.22;;;21.70;100.00
2268;BME280;11052;43.338;25.502;2022-08-30T03:40:27;100454.97;;;21.54;100.00
2268;BME280;11052;43.338;25.502;2022-08-30T03:42:55;100463.22;;;21.50;100.00
2268;BME280;11052;43.338;25.502;2022-08-30T03:45:22;100455.63;;;21.45;100.00
2268;BME280;11052;43.338;25.502;2022-08-30T03:47:50;100456.91;;;21.40;100.00
2268;BME280;11052;43.338;25.502;2022-08-30T03:50:17;100463.03;;;21.40;100.00
2268;BME280;11052;43.338;25.502;2022-08-30T03:52:45;100464.72;;;21.41;100.00
2268;BME280;11052;43.338;25.502;2022-08-30T03:55:15;100454.28;;;21.40;100.00
2268;BME280;11052;43.338;25.502;2022-08-30T03:57:43;100470.00;;;21.41;100.00
2268;BME280;11052;43.338;25.502;2022-08-30T04:00:13;100470.84;;;21.42;100.00
2268;BME280;11052;43.338;25.502;2022-08-30T04:02:42;100475.28;;;21.41;100.00
2268;BME280;11052;43.338;25.502;2022-08-30T04:05:10;100485.53;;;21.33;100.00
2268;BME280;11052;43.338;25.502;2022-08-30T04:07:38;100482.78;;;21.35;100.00
2268;BME280;11052;43.338;25.502;2022-08-30T04:10:07;100492.81;;;21.30;100.00
2268;BME280;11052;43.338;25.502;2022-08-30T04:12:37;100482.38;;;21.28;100.00
2268;BME280;11052;43.338;25.502;2022-08-30T04:15:05;100483.75;;;21.34;100.00
2268;BME280;11052;43.338;25.502;2022-08-30T04:17:35;100487.00;;;21.37;100.00
2268;BME280;11052;43.338;25.502;2022-08-30T04:20:04;100484.97;;;21.41;100.00
2268;BME280;11052;43.338;25.502;2022-08-30T04:22:32;100487.91;;;21.49;100.00
2268;BME280;11052;43.338;25.502;2022-08-30T04:24:59;100483.75;;;21.57;100.00
2268;BME280;11052;43.338;25.502;2022-08-30T04:27:27;100487.53;;;21.66;100.00
2268;BME280;11052;43.338;25.502;2022-08-30T04:29:57;100499.28;;;21.73;100.00
2268;BME280;11052;43.338;25.502;2022-08-30T04:32:25;100499.78;;;21.78;100.00
2268;BME280;11052;43.338;25.502;2022-08-30T04:34:56;100506.94;;;21.89;100.00
2268;BME280;11052;43.338;25.502;2022-08-30T04:37:24;100509.00;;;21.97;100.00
2268;BME280;11052;43.338;25.502;2022-08-30T04:39:55;100509.91;;;22.08;100.00
2268;BME280;11052;43.338;25.502;2022-08-30T04:42:25;100508.28;;;22.18;100.00
2268;BME280;11052;43.338;25.502;2022-08-30T04:44:58;100507.81;;;22.24;100.00
2268;BME280;11052;43.338;25.502;2022-08-30T04:47:26;100520.69;;;22.29;100.00
2268;BME280;11052;43.338;25.502;2022-08-30T04:49:53;100515.53;;;22.39;100.00
2268;BME280;11052;43.338;25.502;2022-08-30T04:52:20;100516.78;;;22.68;100.00
2268;BME280;11052;43.338;25.502;2022-08-30T04:54:53;100516.97;;;23.00;100.00
2268;BME280;11052;43.338;25.502;2022-08-30T04:57:22;100518.88;;;23.32;100.00
2268;BME280;11052;43.338;25.502;2022-08-30T04:59:50;100531.69;;;23.70;100.00
2268;BME280;11052;43.338;25.502;2022-08-30T05:02:19;100524.25;;;23.96;100.00
2268;BME280;11052;43.338;25.502;2022-08-30T05:04:47;100522.56;;;24.27;100.00
2268;BME280;11052;43.338;25.502;2022-08-30T05:07:32;100528.78;;;24.58;100.00
2268;BME280;11052;43.338;25.502;2022-08-30T05:10:00;100526.84;;;24.90;100.00
2268;BME280;11052;43.338;25.502;2022-08-30T05:12:27;100525.72;;;25.13;100.00
2268;BME280;11052;43.338;25.502;2022-08-30T05:14:55;100524.91;;;25.23;100.00
2268;BME280;11052;43.338;25.502;2022-08-30T05:17:24;100527.44;;;25.34;100.00
2268;BME280;11052;43.338;25.502;2022-08-30T05:19:52;100529.03;;;25.46;100.00
2268;BME280;11052;43.338;25.502;2022-08-30T05:22:19;100530.19;;;25.63;100.00
2268;BME280;11052;43.338;25.502;2022-08-30T05:24:47;100537.00;;;25.56;100.00
2268;BME280;11052;43.338;25.502;2022-08-30T05:27:15;100544.28;;;25.54;100.00
2268;BME280;11052;43.338;25.502;2022-08-30T05:29:42;100553.16;;;25.73;100.00
2268;BME280;11052;43.338;25.502;2022-08-30T05:32:10;100553.88;;;25.95;100.00
2268;BME280;11052;43.338;25.502;2022-08-30T05:34:39;100554.72;;;26.24;100.00
2268;BME280;11052;43.338;25.502;2022-08-30T05:37:07;100558.63;;;26.59;100.00
2268;BME280;11052;43.338;25.502;2022-08-30T05:39:34;100561.81;;;26.72;100.00
2268;BME280;11052;43.338;25.502;2022-08-30T05:42:02;100565.78;;;26.95;100.00
2268;BME280;11052;43.338;25.502;2022-08-30T05:44:30;100562.91;;;27.26;100.00
2268;BME280;11052;43.338;25.502;2022-08-30T05:46:57;100560.22;;;27.63;100.00
2268;BME280;11052;43.338;25.502;2022-08-30T05:49:25;100565.66;;;27.89;100.00
2268;BME280;11052;43.338;25.502;2022-08-30T05:51:54;100571.22;;;28.13;100.00
2268;BME280;11052;43.338;25.502;2022-08-30T05:54:22;100562.25;;;28.32;100.00
2268;BME280;11052;43.338;25.502;2022-08-30T05:56:50;100573.81;;;28.58;100.00
2268;BME280;11052;43.338;25.502;2022-08-30T05:59:18;100570.84;;;28.87;100.00
2268;BME280;11052;43.338;25.502;2022-08-30T06:01:47;100569.31;;;28.85;100.00
2268;BME280;11052;43.338;25.502;2022-08-30T06:04:15;100568.31;;;29.12;100.00
2268;BME280;11052;43.338;25.502;2022-08-30T06:06:43;100569.50;;;29.43;100.00
2268;BME280;11052;43.338;25.502;2022-08-30T06:09:13;100569.88;;;29.73;100.00
2268;BME280;11052;43.338;25.502;2022-08-30T06:11:41;100563.88;;;29.71;100.00
2268;BME280;11052;43.338;25.502;2022-08-30T06:14:10;100569.59;;;29.92;100.00
2268;BME280;11052;43.338;25.502;2022-08-30T06:16:38;100570.59;;;29.91;94.29
2268;BME280;11052;43.338;25.502;2022-08-30T06:19:08;100569.50;;;30.18;96.54
2268;BME280;11052;43.338;25.502;2022-08-30T06:21:36;100568.13;;;30.38;95.68
2268;BME280;11052;43.338;25.502;2022-08-30T06:24:05;100564.78;;;30.77;86.53
2268;BME280;11052;43.338;25.502;2022-08-30T06:26:39;100555.56;;;30.87;76.95
2268;BME280;11052;43.338;25.502;2022-08-30T06:29:07;100564.63;;;30.70;80.08
2268;BME280;11052;43.338;25.502;2022-08-30T06:31:35;100558.94;;;30.73;80.01
2268;BME280;11052;43.338;25.502;2022-08-30T06:34:03;100563.63;;;30.79;73.82
2268;BME280;11052;43.338;25.502;2022-08-30T06:36:31;100559.78;;;30.74;73.82
2268;BME280;11052;43.338;25.502;2022-08-30T06:38:59;100554.56;;;30.80;68.98
2268;BME280;11052;43.338;25.502;2022-08-30T06:41:28;100561.25;;;30.84;71.44
2268;BME280;11052;43.338;25.502;2022-08-30T06:44:00;100550.47;;;31.09;76.98
2268;BME280;11052;43.338;25.502;2022-08-30T06:46:31;100559.41;;;30.93;71.74
2268;BME280;11052;43.338;25.502;2022-08-30T06:49:00;100562.88;;;31.02;68.15
2268;BME280;11052;43.338;25.502;2022-08-30T06:51:29;100557.41;;;31.34;67.74
2268;BME280;11052;43.338;25.502;2022-08-30T06:53:58;100565.56;;;31.49;63.64
2268;BME280;11052;43.338;25.502;2022-08-30T06:56:25;100574.75;;;31.54;64.50
2268;BME280;11052;43.338;25.502;2022-08-30T06:58:54;100578.16;;;31.79;64.57
2268;BME280;11052;43.338;25.502;2022-08-30T07:01:25;100584.44;;;31.94;63.93
2268;BME280;11052;43.338;25.502;2022-08-30T07:03:53;100582.34;;;32.05;61.81
2268;BME280;11052;43.338;25.502;2022-08-30T07:06:22;100590.41;;;32.05;60.00
2268;BME280;11052;43.338;25.502;2022-08-30T07:08:49;100585.78;;;32.13;59.88
2268;BME280;11052;43.338;25.502;2022-08-30T07:11:24;100579.91;;;31.95;60.87
2268;BME280;11052;43.338;25.502;2022-08-30T07:13:53;100583.03;;;32.21;65.42
2268;BME280;11052;43.338;25.502;2022-08-30T07:16:22;100584.66;;;32.08;62.87
2268;BME280;11052;43.338;25.502;2022-08-30T07:18:50;100579.25;;;31.93;59.41
2268;BME280;11052;43.338;25.502;2022-08-30T07:21:22;100576.50;;;31.78;61.45
2268;BME280;11052;43.338;25.502;2022-08-30T07:23:51;100577.22;;;31.95;61.72
2268;BME280;11052;43.338;25.502;2022-08-30T07:26:22;100571.75;;;31.88;58.81
2268;BME280;11052;43.338;25.502;2022-08-30T07:28:50;100573.19;;;31.99;65.33
2268;BME280;11052;43.338;25.502;2022-08-30T07:31:19;100576.44;;;32.09;62.59
2268;BME280;11052;43.338;25.502;2022-08-30T07:33:48;100583.72;;;32.23;58.41
2268;BME280;11052;43.338;25.502;2022-08-30T07:36:17;100581.28;;;32.37;60.61
2268;BME280;11052;43.338;25.502;2022-08-30T07:38:47;100573.44;;;32.50;59.00
2268;BME280;11052;43.338;25.502;2022-08-30T07:41:18;100579.59;;;32.73;58.08
2268;BME280;11052;43.338;25.502;2022-08-30T07:43:46;100577.25;;;32.78;60.01
2268;BME280;11052;43.338;25.502;2022-08-30T07:46:15;100588.00;;;32.93;58.49
2268;BME280;11052;43.338;25.502;2022-08-30T07:48:43;100588.28;;;32.83;60.16
2268;BME280;11052;43.338;25.502;2022-08-30T07:51:14;100586.50;;;32.76;58.12
2268;BME280;11052;43.338;25.502;2022-08-30T07:53:43;100588.53;;;32.51;57.14
2268;BME280;11052;43.338;25.502;2022-08-30T07:56:11;100596.34;;;32.61;55.87
2268;BME280;11052;43.338;25.502;2022-08-30T07:58:39;100590.06;;;32.31;53.40
2268;BME280;11052;43.338;25.502;2022-08-30T08:01:09;100582.47;;;32.34;56.31
2268;BME280;11052;43.338;25.502;2022-08-30T08:03:38;100589.16;;;32.38;55.71
2268;BME280;11052;43.338;25.502;2022-08-30T08:06:08;100588.31;;;32.38;55.26
2268;BME280;11052;43.338;25.502;2022-08-30T08:08:38;100589.16;;;31.92;56.05
2268;BME280;11052;43.338;25.502;2022-08-30T08:11:07;100589.38;;;31.83;56.51
2268;BME280;11052;43.338;25.502;2022-08-30T08:13:35;100586.28;;;31.94;56.99
2268;BME280;11052;43.338;25.502;2022-08-30T08:16:03;100585.09;;;31.97;58.20
2268;BME280;11052;43.338;25.502;2022-08-30T08:18:31;100584.66;;;32.08;58.34
2268;BME280;11052;43.338;25.502;2022-08-30T08:20:59;100596.31;;;32.23;58.83
2268;BME280;11052;43.338;25.502;2022-08-30T08:23:27;100580.19;;;32.46;58.18
2268;BME280;11052;43.338;25.502;2022-08-30T08:25:57;100583.31;;;32.35;58.33
2268;BME280;11052;43.338;25.502;2022-08-30T08:28:24;100586.25;;;32.63;57.55
2268;BME280;11052;43.338;25.502;2022-08-30T08:30:52;100582.81;;;32.54;57.18
2268;BME280;11052;43.338;25.502;2022-08-30T08:33:20;100581.31;;;32.51;59.40
2268;BME280;11052;43.338;25.502;2022-08-30T08:35:47;100588.50;;;32.74;59.27
2268;BME280;11052;43.338;25.502;2022-08-30T08:38:15;100590.75;;;33.14;59.17
2268;BME280;11052;43.338;25.502;2022-08-30T08:40:47;100574.53;;;33.08;57.10
2268;BME280;11052;43.338;25.502;2022-08-30T08:43:21;100579.09;;;33.07;57.16
2268;BME280;11052;43.338;25.502;2022-08-30T08:45:55;100578.28;;;33.36;55.13
2268;BME280;11052;43.338;25.502;2022-08-30T08:48:31;100570.63;;;33.54;55.49
2268;BME280;11052;43.338;25.502;2022-08-30T08:50:59;100568.91;;;33.83;53.58
2268;BME280;11052;43.338;25.502;2022-08-30T08:54:03;100572.41;;;33.47;51.35
2268;BME280;11052;43.338;25.502;2022-08-30T08:56:33;100573.56;;;33.74;55.16
2268;BME280;11052;43.338;25.502;2022-08-30T08:59:06;100572.56;;;33.97;52.59
2268;BME280;11052;43.338;25.502;2022-08-30T09:01:34;100583.91;;;33.92;52.17
2268;BME280;11052;43.338;25.502;2022-08-30T09:04:09;100577.19;;;34.03;52.62
2268;BME280;11052;43.338;25.502;2022-08-30T09:06:46;100581.47;;;33.97;52.81
2268;BME280;11052;43.338;25.502;2022-08-30T09:09:18;100576.09;;;33.97;51.43
2268;BME280;11052;43.338;25.502;2022-08-30T09:11:46;100564.69;;;33.95;50.99
2268;BME280;11052;43.338;25.502;2022-08-30T09:14:19;100570.44;;;33.92;50.47
2268;BME280;11052;43.338;25.502;2022-08-30T09:16:50;100565.59;;;34.02;51.40
2268;BME280;11052;43.338;25.502;2022-08-30T09:19:37;100561.34;;;33.93;50.45
2268;BME280;11052;43.338;25.502;2022-08-30T09:22:15;100559.41;;;33.87;53.62
2268;BME280;11052;43.338;25.502;2022-08-30T09:24:45;100564.09;;;34.00;50.29
2268;BME280;11052;43.338;25.502;2022-08-30T09:27:20;100561.22;;;34.01;50.80
2268;BME280;11052;43.338;25.502;2022-08-30T09:29:55;100558.09;;;33.98;50.46
2268;BME280;11052;43.338;25.502;2022-08-30T09:32:25;100549.81;;;33.78;50.89
2268;BME280;11052;43.338;25.502;2022-08-30T09:34:54;100541.31;;;33.60;51.10
2268;BME280;11052;43.338;25.502;2022-08-30T09:37:28;100542.75;;;33.77;52.83
2268;BME280;11052;43.338;25.502;2022-08-30T09:39:59;100541.94;;;33.98;51.77
2268;BME280;11052;43.338;25.502;2022-08-30T09:42:28;100540.66;;;34.15;51.99
2268;BME280;11052;43.338;25.502;2022-08-30T09:44:58;100527.50;;;34.48;53.07
2268;BME280;11052;43.338;25.502;2022-08-30T09:47:38;100530.91;;;34.35;51.72
2268;BME280;11052;43.338;25.502;2022-08-30T09:50:09;100532.69;;;34.28;49.23
2268;BME280;11052;43.338;25.502;2022-08-30T09:52:51;100535.66;;;34.12;50.15
2268;BME280;11052;43.338;25.502;2022-08-30T09:55:48;100520.41;;;34.19;52.54
2268;BME280;11052;43.338;25.502;2022-08-30T09:58:29;100525.09;;;34.32;50.88
2268;BME280;11052;43.338;25.502;2022-08-30T10:01:07;100515.59;;;34.36;51.64
2268;BME280;11052;43.338;25.502;2022-08-30T10:03:42;100510.03;;;33.95;48.65
2268;BME280;11052;43.338;25.502;2022-08-30T10:06:21;100515.88;;;33.98;48.73
2268;BME280;11052;43.338;25.502;2022-08-30T10:08:56;100516.47;;;34.22;50.75
2268;BME280;11052;43.338;25.502;2022-08-30T10:11:31;100518.72;;;34.39;50.87
2268;BME280;11052;43.338;25.502;2022-08-30T10:17:00;100508.44;;;34.49;47.93
2268;BME280;11052;43.338;25.502;2022-08-30T10:19:44;100503.81;;;34.37;49.23
2268;BME280;11052;43.338;25.502;2022-08-30T10:22:19;100504.28;;;34.47;48.83
2268;BME280;11052;43.338;25.502;2022-08-30T10:24:53;100501.59;;;34.47;50.03
2268;BME280;11052;43.338;25.502;2022-08-30T10:27:27;100503.06;;;34.84;49.83
2268;BME280;11052;43.338;25.502;2022-08-30T10:30:00;100498.44;;;35.12;48.66
2268;BME280;11052;43.338;25.502;2022-08-30T10:32:36;100492.78;;;35.01;48.51
2268;BME280;11052;43.338;25.502;2022-08-30T10:35:07;100494.25;;;35.03;48.89
2268;BME280;11052;43.338;25.502;2022-08-30T10:37:40;100488.22;;;34.95;46.98
2268;BME280;11052;43.338;25.502;2022-08-30T10:40:14;100486.97;;;34.97;47.69
2268;BME280;11052;43.338;25.502;2022-08-30T10:43:01;100484.31;;;35.04;48.36
2268;BME280;11052;43.338;25.502;2022-08-30T10:45:36;100475.56;;;34.95;48.91
2268;BME280;11052;43.338;25.502;2022-08-30T10:48:15;100477.84;;;34.98;49.60
2268;BME280;11052;43.338;25.502;2022-08-30T10:50:48;100472.66;;;34.97;48.14
2268;BME280;11052;43.338;25.502;2022-08-30T10:53:20;100477.31;;;35.16;49.67
2268;BME280;11052;43.338;25.502;2022-08-30T10:55:55;100469.25;;;35.29;46.11
2268;BME280;11052;43.338;25.502;2022-08-30T10:58:27;100460.19;;;35.30;47.91
2268;BME280;11052;43.338;25.502;2022-08-30T11:04:19;100461.25;;;35.42;47.42
2268;BME280;11052;43.338;25.502;2022-08-30T11:06:57;100460.22;;;35.57;46.77
2268;BME280;11052;43.338;25.502;2022-08-30T11:09:56;100455.22;;;35.40;46.58
2268;BME280;11052;43.338;25.502;2022-08-30T11:12:32;100445.66;;;35.31;45.97
2268;BME280;11052;43.338;25.502;2022-08-30T11:15:14;100453.16;;;35.49;46.88
2268;BME280;11052;43.338;25.502;2022-08-30T11:17:45;100447.31;;;35.32;45.59
2268;BME280;11052;43.338;25.502;2022-08-30T11:20:32;100445.84;;;35.30;44.62
2268;BME280;11052;43.338;25.502;2022-08-30T11:23:28;100443.84;;;35.52;46.77
2268;BME280;11052;43.338;25.502;2022-08-30T11:25:59;100436.97;;;35.56;45.58
2268;BME280;11052;43.338;25.502;2022-08-30T11:31:39;100442.38;;;35.49;44.55
2268;BME280;11052;43.338;25.502;2022-08-30T11:34:08;100442.75;;;35.33;44.46
2268;BME280;11052;43.338;25.502;2022-08-30T11:37:05;100435.88;;;35.24;44.12
2268;BME280;11052;43.338;25.502;2022-08-30T11:39:53;100430.91;;;35.27;43.80
2268;BME280;11052;43.338;25.502;2022-08-30T11:42:43;100426.97;;;35.30;43.89
2268;BME280;11052;43.338;25.502;2022-08-30T11:45:42;100426.94;;;35.23;45.47
2268;BME280;11052;43.338;25.502;2022-08-30T11:48:38;100425.47;;;35.21;46.03
2268;BME280;11052;43.338;25.502;2022-08-30T11:51:20;100411.66;;;35.43;44.59
2268;BME280;11052;43.338;25.502;2022-08-30T11:53:54;100405.47;;;35.50;44.46
2268;BME280;11052;43.338;25.502;2022-08-30T11:56:31;100403.38;;;35.45;44.50
2268;BME280;11052;43.338;25.502;2022-08-30T11:59:06;100402.31;;;35.33;45.25
2268;BME280;11052;43.338;25.502;2022-08-30T12:01:38;100392.53;;;35.25;43.52
2268;BME280;11052;43.338;25.502;2022-08-30T12:04:10;100392.06;;;35.02;43.14
2268;BME280;11052;43.338;25.502;2022-08-30T12:06:45;100377.69;;;34.88;43.02
2268;BME280;11052;43.338;25.502;2022-08-30T12:12:53;100379.19;;;34.97;41.73
2268;BME280;11052;43.338;25.502;2022-08-30T12:18:29;100369.00;;;34.86;42.03
2268;BME280;11052;43.338;25.502;2022-08-30T12:21:13;100360.13;;;35.05;43.72
2268;BME280;11052;43.338;25.502;2022-08-30T12:23:48;100360.13;;;34.99;40.79
2268;BME280;11052;43.338;25.502;2022-08-30T12:26:28;100362.44;;;35.15;42.56
2268;BME280;11052;43.338;25.502;2022-08-30T12:29:11;100356.59;;;34.98;42.87
2268;BME280;11052;43.338;25.502;2022-08-30T12:31:46;100357.22;;;35.00;43.06
2268;BME280;11052;43.338;25.502;2022-08-30T12:34:22;100357.59;;;34.91;41.78
2268;BME280;11052;43.338;25.502;2022-08-30T12:37:00;100348.09;;;34.95;41.93
2268;BME280;11052;43.338;25.502;2022-08-30T12:39:30;100347.28;;;35.01;43.27
2268;BME280;11052;43.338;25.502;2022-08-30T12:42:11;100349.94;;;34.88;41.64
2268;BME280;11052;43.338;25.502;2022-08-30T12:44:40;100352.22;;;34.97;42.85
2268;BME280;11052;43.338;25.502;2022-08-30T12:47:10;100343.94;;;34.92;42.30
2268;BME280;11052;43.338;25.502;2022-08-30T12:49:40;100349.13;;;34.94;43.00
2268;BME280;11052;43.338;25.502;2022-08-30T12:52:21;100343.84;;;34.72;43.28
2268;BME280;11052;43.338;25.502;2022-08-30T12:54:50;100341.41;;;34.84;42.05
2268;BME280;11052;43.338;25.502;2022-08-30T12:57:34;100340.81;;;34.89;41.05
2268;BME280;11052;43.338;25.502;2022-08-30T13:00:05;100322.16;;;34.94;41.79
2268;BME280;11052;43.338;25.502;2022-08-30T13:02:46;100333.56;;;34.96;42.71
2268;BME280;11052;43.338;25.502;2022-08-30T13:08:19;100321.75;;;34.97;40.78
2268;BME280;11052;43.338;25.502;2022-08-30T13:10:54;100320.34;;;35.21;41.51
2268;BME280;11052;43.338;25.502;2022-08-30T13:13:34;100314.94;;;35.14;41.65
2268;BME280;11052;43.338;25.502;2022-08-30T13:16:22;100312.88;;;35.09;38.42
2268;BME280;11052;43.338;25.502;2022-08-30T13:18:52;100303.34;;;35.07;39.83
2268;BME280;11052;43.338;25.502;2022-08-30T13:21:26;100296.69;;;34.96;39.02
2268;BME280;11052;43.338;25.502;2022-08-30T13:23:57;100287.16;;;35.07;37.25
2268;BME280;11052;43.338;25.502;2022-08-30T13:26:25;100290.03;;;34.86;37.27